createdAt,value
2023-02-27T00:00:23.024Z,1.77
2023-02-27T00:02:53.347Z,1.47
2023-02-27T00:05:23.570Z,1.63
2023-02-27T00:07:51.949Z,1.33
2023-02-27T00:10:20.051Z,1.10
2023-02-27T00:12:48.063Z,1.40
2023-02-27T00:15:18.114Z,1.70
2023-02-27T00:17:47.381Z,1.57
2023-02-27T00:20:17.325Z,1.43
2023-02-27T00:22:46.001Z,1.50
2023-02-27T00:25:14.327Z,1.37
2023-02-27T00:27:42.277Z,1.50
2023-02-27T00:30:12.770Z,1.27
2023-02-27T00:32:40.742Z,1.50
2023-02-27T00:35:12.396Z,1.27
2023-02-27T00:37:41.024Z,1.17
2023-02-27T00:40:10.150Z,1.20
2023-02-27T00:42:38.139Z,1.27
2023-02-27T00:45:07.237Z,1.13
2023-02-27T00:47:35.350Z,1.43
2023-02-27T00:50:03.334Z,1.70
2023-02-27T00:52:33.680Z,1.50
2023-02-27T00:55:01.796Z,1.97
2023-02-27T00:57:29.780Z,1.83
2023-02-27T00:59:57.870Z,1.37
2023-02-27T01:02:25.812Z,1.10
2023-02-27T01:04:53.778Z,1.57
2023-02-27T01:07:21.630Z,1.03
2023-02-27T01:09:50.921Z,1.17
2023-02-27T01:12:18.846Z,1.53
2023-02-27T01:14:46.792Z,1.30
2023-02-27T01:17:14.691Z,1.00
2023-02-27T01:19:42.585Z,1.20
2023-02-27T01:22:10.487Z,1.47
2023-02-27T01:24:38.408Z,1.30
2023-02-27T01:27:07.684Z,1.00
2023-02-27T01:29:35.808Z,1.37
2023-02-27T01:32:03.906Z,1.60
2023-02-27T01:34:34.178Z,1.30
2023-02-27T01:37:02.307Z,1.40
2023-02-27T01:39:30.192Z,1.30
2023-02-27T01:41:58.101Z,1.30
2023-02-27T01:44:29.120Z,1.20
2023-02-27T01:46:57.077Z,1.30
2023-02-27T01:49:26.845Z,1.30
2023-02-27T01:51:56.761Z,1.13
2023-02-27T01:54:27.554Z,1.77
2023-02-27T01:56:55.489Z,1.10
2023-02-27T01:59:23.871Z,1.20
2023-02-27T02:01:53.351Z,1.37
2023-02-27T02:04:25.266Z,1.40
2023-02-27T02:06:58.169Z,1.10
2023-02-27T02:09:26.413Z,1.30
2023-02-27T02:11:55.178Z,1.30
2023-02-27T02:14:23.112Z,1.40
2023-02-27T02:17:07.637Z,1.30
2023-02-27T02:20:09.218Z,1.50
2023-02-27T02:23:24.604Z,1.30
2023-02-27T02:26:31.073Z,1.20
2023-02-27T02:29:37.033Z,1.60
2023-02-27T02:32:41.453Z,1.23
2023-02-27T02:36:00.001Z,1.60
2023-02-27T02:38:59.751Z,1.10
2023-02-27T02:41:35.709Z,1.60
2023-02-27T02:44:08.611Z,1.30
2023-02-27T02:46:42.980Z,1.23
2023-02-27T02:49:16.404Z,1.23
2023-02-27T02:51:49.993Z,1.30
2023-02-27T02:54:22.218Z,1.30
2023-02-27T02:56:52.600Z,1.50
2023-02-27T02:59:25.555Z,1.60
2023-02-27T03:01:55.208Z,1.30
2023-02-27T03:04:28.835Z,0.90
2023-02-27T03:07:00.906Z,1.40
2023-02-27T03:09:32.646Z,1.17
2023-02-27T03:12:01.244Z,1.10
2023-02-27T03:14:32.918Z,1.17
2023-02-27T03:17:05.267Z,1.40
2023-02-27T03:19:37.981Z,1.53
2023-02-27T03:22:07.430Z,1.13
2023-02-27T03:24:39.981Z,1.30
2023-02-27T03:27:08.826Z,1.60
2023-02-27T03:29:41.033Z,1.30
2023-02-27T03:32:13.660Z,1.30
2023-02-27T03:34:42.607Z,1.23
2023-02-27T03:37:21.642Z,1.10
2023-02-27T03:39:52.122Z,1.13
2023-02-27T03:42:26.574Z,1.30
2023-02-27T03:44:58.582Z,1.20
2023-02-27T03:47:26.490Z,1.40
2023-02-27T03:49:54.398Z,1.27
2023-02-27T03:52:22.696Z,1.23
2023-02-27T03:54:55.244Z,1.20
2023-02-27T03:57:23.830Z,1.50
2023-02-27T03:59:51.736Z,1.43
2023-02-27T04:02:19.799Z,1.30
2023-02-27T04:04:47.825Z,1.40
2023-02-27T04:07:26.293Z,1.60
2023-02-27T04:10:18.594Z,1.30
2023-02-27T04:13:16.823Z,1.60
2023-02-27T04:16:00.698Z,1.40
2023-02-27T04:18:37.471Z,1.60
2023-02-27T04:21:09.374Z,1.70
2023-02-27T04:23:41.161Z,1.57
2023-02-27T04:26:19.204Z,1.70
2023-02-27T04:28:50.194Z,1.30
2023-02-27T04:31:22.593Z,1.83
2023-02-27T04:33:53.296Z,1.93
2023-02-27T04:36:26.715Z,1.77
2023-02-27T04:38:58.259Z,1.60
2023-02-27T04:41:30.519Z,1.77
2023-02-27T04:43:58.796Z,1.70
2023-02-27T04:46:28.659Z,1.97
2023-02-27T04:49:00.771Z,2.00
2023-02-27T04:51:32.838Z,2.00
2023-02-27T04:54:03.029Z,1.70
2023-02-27T04:56:35.458Z,1.77
2023-02-27T04:59:05.211Z,2.03
2023-02-27T05:01:37.326Z,2.27
2023-02-27T05:04:06.884Z,2.07
2023-02-27T05:06:37.036Z,2.10
2023-02-27T05:09:10.307Z,1.93
2023-02-27T05:11:42.665Z,2.10
2023-02-27T05:14:14.889Z,1.67
2023-02-27T05:16:48.261Z,2.07
2023-02-27T05:19:17.349Z,2.30
2023-02-27T05:21:55.329Z,2.00
2023-02-27T05:24:31.538Z,2.27
2023-02-27T05:27:18.842Z,1.37
2023-02-27T05:29:49.378Z,2.07
2023-02-27T05:32:27.864Z,1.80
2023-02-27T05:34:58.985Z,2.00
2023-02-27T05:37:31.026Z,2.33
2023-02-27T05:40:00.249Z,2.10
2023-02-27T05:42:32.814Z,2.10
2023-02-27T05:45:05.122Z,2.10
2023-02-27T05:47:36.002Z,2.00
2023-02-27T05:50:08.900Z,2.40
2023-02-27T05:52:38.259Z,1.97
2023-02-27T05:55:08.522Z,2.37
2023-02-27T05:57:42.016Z,2.30
2023-02-27T06:00:13.299Z,1.80
2023-02-27T06:02:41.701Z,1.93
2023-02-27T06:05:10.247Z,1.93
2023-02-27T06:07:38.295Z,1.90
2023-02-27T06:10:07.430Z,2.30
2023-02-27T06:12:35.532Z,1.87
2023-02-27T06:15:04.990Z,2.30
2023-02-27T06:17:32.894Z,2.33
2023-02-27T06:20:00.845Z,2.67
2023-02-27T06:22:28.704Z,2.47
2023-02-27T06:24:56.638Z,2.10
2023-02-27T06:27:24.551Z,1.83
2023-02-27T06:29:52.528Z,2.40
2023-02-27T06:32:21.903Z,2.03
2023-02-27T06:34:49.816Z,2.30
2023-02-27T06:37:17.711Z,2.13
2023-02-27T06:39:45.559Z,3.00
2023-02-27T06:42:13.467Z,2.73
2023-02-27T06:44:41.425Z,2.80
2023-02-27T06:47:09.349Z,1.80
2023-02-27T06:49:38.710Z,2.60
2023-02-27T06:52:06.624Z,2.50
2023-02-27T06:54:34.682Z,2.83
2023-02-27T06:57:02.667Z,2.43
2023-02-27T06:59:30.569Z,2.80
2023-02-27T07:01:59.205Z,2.67
2023-02-27T07:04:27.343Z,2.50
2023-02-27T07:07:34.392Z,2.43
2023-02-27T07:09:44.507Z,2.23
2023-02-27T07:12:12.394Z,2.70
2023-02-27T07:14:40.318Z,2.60
2023-02-27T07:17:08.255Z,2.47
2023-02-27T07:19:37.522Z,2.03
2023-02-27T07:22:09.266Z,2.33
2023-02-27T07:24:37.438Z,2.43
2023-02-27T07:27:05.299Z,2.17
2023-02-27T07:29:33.223Z,2.40
2023-02-27T07:32:01.556Z,2.43
2023-02-27T07:34:29.566Z,2.57
2023-02-27T07:36:57.661Z,2.37
2023-02-27T07:39:26.959Z,3.00
2023-02-27T07:41:54.797Z,2.57
2023-02-27T07:44:22.846Z,2.70
2023-02-27T07:46:50.776Z,2.47
2023-02-27T07:49:18.776Z,2.57
2023-02-27T07:51:46.704Z,2.60
2023-02-27T07:54:14.608Z,2.70
2023-02-27T07:56:44.106Z,2.50
2023-02-27T07:59:12.290Z,2.63
2023-02-27T08:01:40.315Z,2.80
2023-02-27T08:04:08.224Z,2.60
2023-02-27T08:06:36.101Z,2.97
2023-02-27T08:09:04.174Z,3.53
2023-02-27T08:11:32.125Z,2.63
2023-02-27T08:14:02.402Z,3.07
2023-02-27T08:16:32.184Z,3.37
2023-02-27T08:19:00.755Z,3.43
2023-02-27T08:21:29.524Z,3.00
2023-02-27T08:23:57.764Z,3.20
2023-02-27T08:26:28.361Z,3.20
2023-02-27T08:28:56.465Z,2.70
2023-02-27T08:31:25.975Z,3.43
2023-02-27T08:34:01.258Z,2.57
2023-02-27T08:36:37.093Z,2.77
2023-02-27T08:39:07.642Z,3.60
2023-02-27T08:41:36.022Z,3.43
2023-02-27T08:44:04.433Z,3.20
2023-02-27T08:46:33.808Z,3.20
2023-02-27T08:49:01.738Z,3.17
2023-02-27T08:51:29.890Z,3.03
2023-02-27T08:53:59.068Z,3.40
2023-02-27T08:56:27.488Z,2.83
2023-02-27T08:58:55.918Z,3.07
2023-02-27T09:01:26.159Z,3.60
2023-02-27T09:03:55.638Z,2.80
2023-02-27T09:06:25.879Z,3.30
2023-02-27T09:08:54.263Z,3.10
2023-02-27T09:11:22.232Z,2.90
2023-02-27T09:13:51.442Z,2.77
2023-02-27T09:16:19.656Z,2.73
2023-02-27T09:18:47.778Z,2.87
2023-02-27T09:21:17.167Z,3.03
2023-02-27T09:23:45.112Z,2.63
2023-02-27T09:26:13.241Z,3.07
2023-02-27T09:28:41.217Z,2.73
2023-02-27T09:31:09.353Z,3.23
2023-02-27T09:33:38.422Z,2.90
2023-02-27T09:36:07.234Z,2.87
2023-02-27T09:38:36.969Z,2.67
2023-02-27T09:41:06.322Z,3.47
2023-02-27T09:43:38.086Z,2.77
2023-02-27T09:46:07.587Z,2.83
2023-02-27T09:48:38.735Z,2.57
2023-02-27T09:51:06.701Z,3.07
2023-02-27T09:53:39.687Z,1.87
2023-02-27T09:56:11.046Z,2.67
2023-02-27T09:58:45.393Z,2.63
2023-02-27T10:01:17.479Z,2.77
2023-02-27T10:03:58.886Z,2.40
2023-02-27T10:06:28.765Z,2.57
2023-02-27T10:09:07.466Z,2.47
2023-02-27T10:11:44.767Z,2.33
2023-02-27T10:14:19.780Z,2.35
2023-02-27T10:16:49.731Z,1.97
2023-02-27T10:19:20.448Z,2.20
2023-02-27T10:21:50.519Z,1.93
2023-02-27T10:24:24.439Z,2.40
2023-02-27T10:26:54.208Z,2.40
2023-02-27T10:29:27.263Z,1.97
2023-02-27T10:31:59.351Z,2.00
2023-02-27T10:34:28.733Z,1.83
2023-02-27T10:36:56.901Z,2.10
2023-02-27T10:39:27.105Z,2.17
2023-02-27T10:41:55.319Z,1.90
2023-02-27T10:44:24.537Z,2.00
2023-02-27T10:46:52.541Z,1.87
2023-02-27T10:49:21.765Z,2.50
2023-02-27T10:52:06.278Z,1.70
2023-02-27T10:54:35.659Z,1.90
2023-02-27T10:57:05.710Z,2.20
2023-02-27T10:59:35.254Z,2.10
2023-02-27T11:02:05.478Z,1.97
2023-02-27T11:04:35.094Z,1.83
2023-02-27T11:07:05.487Z,1.73
2023-02-27T11:09:35.546Z,2.05
2023-02-27T11:12:20.079Z,2.15
2023-02-27T11:14:52.734Z,1.77
2023-02-27T11:17:26.767Z,1.87
2023-02-27T11:19:54.692Z,1.87
2023-02-27T11:22:24.868Z,1.95
2023-02-27T11:25:12.097Z,1.77
2023-02-27T11:27:40.038Z,1.90
2023-02-27T11:30:23.004Z,2.00
2023-02-27T11:32:51.359Z,1.60
2023-02-27T11:35:24.209Z,1.55
2023-02-27T11:37:53.877Z,1.50
2023-02-27T11:40:26.026Z,1.52
2023-02-27T11:42:56.301Z,1.88
2023-02-27T11:46:04.881Z,1.83
2023-02-27T11:48:21.885Z,1.30
2023-02-27T11:51:29.125Z,1.40
2023-02-27T11:54:09.465Z,1.33
2023-02-27T11:56:41.095Z,1.60
2023-02-27T11:59:18.225Z,1.83
2023-02-27T12:01:50.768Z,1.60
2023-02-27T12:04:22.924Z,1.40
2023-02-27T12:06:55.502Z,1.45
2023-02-27T12:09:33.044Z,1.40
2023-02-27T12:12:04.369Z,1.80
2023-02-27T12:14:36.577Z,1.20
2023-02-27T12:17:09.700Z,1.15
2023-02-27T12:19:43.253Z,1.38
2023-02-27T12:22:19.004Z,1.42
2023-02-27T12:24:49.676Z,1.20
2023-02-27T12:27:21.755Z,1.20
2023-02-27T12:29:52.585Z,1.30
2023-02-27T12:32:25.005Z,1.60
2023-02-27T12:34:55.526Z,1.55
2023-02-27T12:37:26.022Z,1.10
2023-02-27T12:39:54.814Z,1.25
2023-02-27T12:42:46.028Z,1.60
2023-02-27T12:45:30.631Z,1.48
2023-02-27T12:48:05.846Z,1.30
2023-02-27T12:50:44.242Z,1.23
2023-02-27T12:53:25.551Z,1.50
2023-02-27T12:55:56.543Z,1.30
2023-02-27T12:58:33.738Z,1.20
2023-02-27T13:01:03.946Z,1.08
2023-02-27T13:03:36.030Z,1.30
2023-02-27T13:06:09.926Z,1.20
2023-02-27T13:09:06.606Z,1.20
2023-02-27T13:11:45.654Z,1.20
2023-02-27T13:14:24.994Z,1.10
2023-02-27T13:16:57.226Z,1.20
2023-02-27T13:19:28.730Z,1.13
2023-02-27T13:21:57.516Z,1.00
2023-02-27T13:24:27.296Z,0.82
2023-02-27T13:26:59.516Z,1.40
2023-02-27T13:29:38.223Z,1.23
2023-02-27T13:32:15.674Z,1.27
2023-02-27T13:34:45.853Z,1.52
2023-02-27T13:37:13.809Z,0.80
2023-02-27T13:39:56.067Z,1.20
2023-02-27T13:42:56.968Z,1.10
2023-02-27T13:45:54.855Z,1.20
2023-02-27T13:48:49.261Z,1.48
2023-02-27T13:51:53.824Z,1.42
2023-02-27T13:54:25.538Z,1.02
2023-02-27T13:57:08.785Z,1.42
2023-02-27T13:59:39.600Z,1.23
2023-02-27T14:02:35.581Z,1.27
2023-02-27T14:05:06.908Z,1.10
2023-02-27T14:07:48.744Z,1.42
2023-02-27T14:10:21.988Z,1.20
2023-02-27T14:12:49.966Z,1.30
2023-02-27T14:15:53.630Z,1.27
2023-02-27T14:18:55.275Z,1.35
2023-02-27T14:21:52.692Z,1.20
2023-02-27T14:24:22.382Z,1.10
2023-02-27T14:26:50.888Z,1.40
2023-02-27T14:29:22.430Z,1.17
2023-02-27T14:31:51.267Z,1.38
2023-02-27T14:34:22.820Z,1.25
2023-02-27T14:36:54.235Z,0.95
2023-02-27T14:39:24.336Z,1.10
2023-02-27T14:42:02.878Z,1.40
2023-02-27T14:44:38.780Z,1.15
2023-02-27T14:47:07.025Z,1.05
2023-02-27T14:49:37.608Z,1.30
2023-02-27T14:52:18.769Z,0.90
2023-02-27T14:54:46.689Z,0.95
2023-02-27T14:57:19.538Z,1.05
2023-02-27T14:59:49.386Z,1.40
2023-02-27T15:02:22.135Z,1.10
2023-02-27T15:04:56.119Z,1.35
2023-02-27T15:07:26.931Z,1.05
2023-02-27T15:09:56.937Z,1.10
2023-02-27T15:12:25.644Z,1.30
2023-02-27T15:14:55.351Z,0.95
2023-02-27T15:17:25.197Z,1.38
2023-02-27T15:19:56.188Z,1.23
2023-02-27T15:22:38.027Z,1.13
2023-02-27T15:25:08.376Z,1.13
2023-02-27T15:27:38.144Z,1.45
2023-02-27T15:30:07.596Z,1.20
2023-02-27T15:32:37.429Z,1.02
2023-02-27T15:35:16.397Z,1.00
2023-02-27T15:37:47.348Z,1.35
2023-02-27T15:40:21.374Z,1.27
2023-02-27T15:42:49.489Z,1.13
2023-02-27T15:45:19.667Z,1.02
2023-02-27T15:47:47.985Z,1.20
2023-02-27T15:50:27.652Z,1.27
2023-02-27T15:53:01.147Z,1.30
2023-02-27T15:55:30.563Z,1.30
2023-02-27T15:58:03.038Z,1.30
2023-02-27T16:00:32.593Z,1.23
2023-02-27T16:03:00.918Z,1.60
2023-02-27T16:05:36.139Z,1.30
2023-02-27T16:08:04.513Z,1.67
2023-02-27T16:10:36.924Z,1.50
2023-02-27T16:13:23.198Z,1.30
2023-02-27T16:16:02.612Z,1.50
2023-02-27T16:18:34.611Z,1.35
2023-02-27T16:21:15.611Z,1.35
2023-02-27T16:23:44.208Z,1.50
2023-02-27T16:26:29.301Z,1.40
2023-02-27T16:28:59.965Z,1.52
2023-02-27T16:31:30.455Z,1.70
2023-02-27T16:34:00.015Z,1.40
2023-02-27T16:36:31.028Z,1.20
2023-02-27T16:38:59.054Z,1.50
2023-02-27T16:41:27.941Z,1.85
2023-02-27T16:43:56.048Z,1.35
2023-02-27T16:46:24.262Z,1.80
2023-02-27T16:48:54.444Z,1.42
2023-02-27T16:51:24.901Z,1.25
2023-02-27T16:53:55.382Z,1.20
2023-02-27T16:56:37.397Z,1.23
2023-02-27T16:59:08.172Z,1.48
2023-02-27T17:01:36.251Z,1.70
2023-02-27T17:04:13.335Z,1.40
2023-02-27T17:06:47.956Z,1.30
2023-02-27T17:09:17.313Z,1.10
2023-02-27T17:11:45.172Z,1.80
2023-02-27T17:14:13.306Z,1.50
2023-02-27T17:16:41.382Z,1.77
2023-02-27T17:19:09.413Z,1.43
2023-02-27T17:21:37.372Z,1.60
2023-02-27T17:24:06.193Z,1.40
2023-02-27T17:26:36.434Z,1.57
2023-02-27T17:29:05.299Z,1.70
2023-02-27T17:31:33.240Z,1.60
2023-02-27T17:34:03.084Z,1.90
2023-02-27T17:36:31.103Z,1.90
2023-02-27T17:39:00.683Z,1.77
2023-02-27T17:41:28.982Z,1.80
2023-02-27T17:43:58.873Z,1.60
2023-02-27T17:46:29.342Z,1.57
2023-02-27T17:49:00.499Z,1.80
2023-02-27T17:51:29.398Z,1.93
2023-02-27T17:53:57.864Z,1.70
2023-02-27T17:56:25.962Z,1.80
2023-02-27T17:58:54.052Z,1.83
2023-02-27T18:01:25.911Z,1.83
2023-02-27T18:03:54.848Z,2.10
2023-02-27T18:06:26.107Z,2.10
2023-02-27T18:08:54.136Z,2.40
2023-02-27T18:11:23.337Z,2.27
2023-02-27T18:13:51.620Z,2.20
2023-02-27T18:16:21.968Z,2.10
2023-02-27T18:18:51.408Z,2.00
2023-02-27T18:21:21.797Z,2.10
2023-02-27T18:23:50.344Z,2.00
2023-02-27T18:26:32.913Z,2.20
2023-02-27T18:29:02.223Z,2.10
2023-02-27T18:31:31.842Z,1.73
2023-02-27T18:34:01.626Z,2.00
2023-02-27T18:36:33.422Z,2.23
2023-02-27T18:39:01.806Z,2.07
2023-02-27T18:41:30.242Z,2.10
2023-02-27T18:43:58.603Z,2.20
2023-02-27T18:46:29.183Z,1.90
2023-02-27T18:48:59.104Z,2.07
2023-02-27T18:51:28.790Z,1.93
2023-02-27T18:53:57.212Z,2.60
2023-02-27T18:56:26.164Z,2.33
2023-02-27T18:58:54.820Z,2.10
2023-02-27T19:01:26.790Z,1.93
2023-02-27T19:04:00.330Z,1.80
2023-02-27T19:06:32.539Z,2.30
2023-02-27T19:09:00.606Z,2.30
2023-02-27T19:11:33.042Z,2.33
2023-02-27T19:14:02.118Z,2.57
2023-02-27T19:16:32.952Z,2.30
2023-02-27T19:19:01.937Z,2.47
2023-02-27T19:21:30.361Z,2.67
2023-02-27T19:24:00.107Z,2.50
2023-02-27T19:26:28.461Z,2.83
2023-02-27T19:28:56.885Z,2.40
2023-02-27T19:31:25.789Z,2.43
2023-02-27T19:33:53.774Z,2.57
2023-02-27T19:36:23.468Z,2.70
2023-02-27T19:38:52.551Z,2.90
2023-02-27T19:41:22.479Z,3.10
2023-02-27T19:43:51.009Z,3.07
2023-02-27T19:46:20.670Z,3.03
2023-02-27T19:48:48.749Z,2.90
2023-02-27T19:51:17.151Z,2.80
2023-02-27T19:53:48.340Z,3.23
2023-02-27T19:56:20.992Z,3.57
2023-02-27T19:58:54.311Z,3.83
2023-02-27T20:01:24.616Z,3.37
2023-02-27T20:03:52.572Z,3.07
2023-02-27T20:06:23.223Z,3.33
2023-02-27T20:08:51.378Z,3.27
2023-02-27T20:11:20.734Z,3.27
2023-02-27T20:13:51.536Z,3.43
2023-02-27T20:16:22.256Z,3.47
2023-02-27T20:18:51.405Z,3.00
2023-02-27T20:21:21.455Z,3.57
2023-02-27T20:23:50.729Z,2.80
2023-02-27T20:26:20.598Z,3.47
2023-02-27T20:28:50.953Z,3.50
2023-02-27T20:31:21.266Z,3.43
2023-02-27T20:33:49.842Z,3.57
2023-02-27T20:36:17.971Z,3.60
2023-02-27T20:38:46.590Z,4.03
2023-02-27T20:41:16.225Z,3.73
2023-02-27T20:43:44.709Z,3.20
2023-02-27T20:46:15.900Z,3.40
2023-02-27T20:48:44.193Z,3.37
2023-02-27T20:51:14.586Z,3.33
2023-02-27T20:53:44.664Z,3.80
2023-02-27T20:56:12.772Z,3.50
2023-02-27T20:58:40.692Z,3.30
2023-02-27T21:01:20.581Z,3.63
2023-02-27T21:03:50.661Z,3.40
2023-02-27T21:06:19.934Z,3.87
2023-02-27T21:08:54.894Z,3.73
2023-02-27T21:11:24.388Z,3.67
2023-02-27T21:13:54.729Z,3.73
2023-02-27T21:16:25.632Z,3.73
2023-02-27T21:18:54.033Z,3.60
2023-02-27T21:21:24.599Z,3.47
2023-02-27T21:23:53.189Z,3.90
2023-02-27T21:26:22.856Z,3.90
2023-02-27T21:28:55.366Z,3.80
2023-02-27T21:31:26.501Z,3.93
2023-02-27T21:33:55.547Z,4.20
2023-02-27T21:36:27.413Z,4.67
2023-02-27T21:38:59.151Z,4.73
2023-02-27T21:41:27.806Z,4.87
2023-02-27T21:43:59.029Z,4.43
2023-02-27T21:46:28.933Z,4.50
2023-02-27T21:48:56.924Z,4.53
2023-02-27T21:51:38.816Z,4.67
2023-02-27T21:54:33.218Z,4.67
2023-02-27T21:57:03.196Z,4.20
2023-02-27T21:59:31.172Z,4.97
2023-02-27T22:02:00.555Z,4.30
2023-02-27T22:04:28.619Z,4.80
2023-02-27T22:06:56.593Z,4.80
2023-02-27T22:09:24.515Z,4.87
2023-02-27T22:11:52.436Z,4.47
2023-02-27T22:14:20.260Z,4.60
2023-02-27T22:16:48.215Z,4.57
2023-02-27T22:19:19.869Z,4.43
2023-02-27T22:21:49.160Z,4.50
2023-02-27T22:24:17.109Z,4.60
2023-02-27T22:26:45.779Z,4.27
2023-02-27T22:29:13.726Z,4.50
2023-02-27T22:31:42.056Z,4.60
2023-02-27T22:34:13.959Z,4.33
2023-02-27T22:36:44.581Z,4.27
2023-02-27T22:39:13.045Z,5.03
2023-02-27T22:41:42.489Z,4.20
2023-02-27T22:44:12.701Z,3.90
2023-02-27T22:46:42.614Z,4.53
2023-02-27T22:49:12.914Z,4.77
2023-02-27T22:51:40.833Z,4.70
2023-02-27T22:54:10.543Z,5.03
2023-02-27T22:56:38.561Z,4.53
2023-02-27T22:59:07.884Z,4.37
2023-02-27T23:01:37.303Z,4.40
2023-02-27T23:04:06.986Z,5.07
2023-02-27T23:06:37.086Z,4.80
2023-02-27T23:09:06.321Z,4.83
2023-02-27T23:11:35.627Z,4.43
2023-02-27T23:14:03.518Z,4.77
2023-02-27T23:16:31.521Z,5.47
2023-02-27T23:19:00.275Z,4.70
2023-02-27T23:21:34.298Z,4.87
2023-02-27T23:24:04.414Z,4.73
2023-02-27T23:26:32.446Z,4.60
2023-02-27T23:29:01.702Z,4.60
2023-02-27T23:31:31.130Z,4.97
2023-02-27T23:34:00.691Z,4.77
2023-02-27T23:36:28.645Z,4.90
2023-02-27T23:38:59.066Z,4.53
2023-02-27T23:41:27.918Z,4.53
2023-02-27T23:44:13.618Z,4.33
2023-02-27T23:46:42.927Z,4.40
2023-02-27T23:49:10.926Z,5.07
2023-02-27T23:51:39.005Z,4.70
2023-02-27T23:54:06.959Z,4.50
2023-02-27T23:56:34.914Z,4.90
2023-02-27T23:59:05.240Z,4.80
